sensor_id;sensor_type;location;lat;lon;timestamp;pressure;altitude;pressure_sealevel;temperature;humidity
10806;BME280;5455;53.224;6.000;2024-02-21T00:01:03;101902.72;;;9.09;100.00
10806;BME280;5455;53.224;6.000;2024-02-21T00:03:31;101907.41;;;9.09;100.00
10806;BME280;5455;53.224;6.000;2024-02-21T00:05:58;101894.78;;;9.08;100.00
10806;BME280;5455;53.224;6.000;2024-02-21T00:08:25;101897.53;;;9.08;100.00
10806;BME280;5455;53.224;6.000;2024-02-21T00:10:52;101907.88;;;9.11;100.00
10806;BME280;5455;53.224;6.000;2024-02-21T00:13:19;101898.50;;;9.12;100.00
10806;BME280;5455;53.224;6.000;2024-02-21T00:15:46;101889.78;;;9.10;100.00
10806;BME280;5455;53.224;6.000;2024-02-21T00:18:13;101894.94;;;9.11;100.00
10806;BME280;5455;53.224;6.000;2024-02-21T00:20:40;101872.94;;;9.11;100.00
10806;BME280;5455;53.224;6.000;2024-02-21T00:23:07;101871.00;;;9.12;100.00
10806;BME280;5455;53.224;6.000;2024-02-21T00:25:35;101854.31;;;9.08;100.00
10806;BME280;5455;53.224;6.000;2024-02-21T00:28:02;101848.00;;;9.08;100.00
10806;BME280;5455;53.224;6.000;2024-02-21T00:30:29;101841.69;;;9.07;100.00
10806;BME280;5455;53.224;6.000;2024-02-21T00:32:56;101830.84;;;9.11;100.00
10806;BME280;5455;53.224;6.000;2024-02-21T00:35:23;101835.53;;;9.10;100.00
10806;BME280;5455;53.224;6.000;2024-02-21T00:37:51;101832.47;;;9.12;100.00
10806;BME280;5455;53.224;6.000;2024-02-21T00:40:18;101832.47;;;9.12;100.00
10806;BME280;5455;53.224;6.000;2024-02-21T00:42:47;101824.22;;;9.12;100.00
10806;BME280;5455;53.224;6.000;2024-02-21T00:45:14;101830.03;;;9.10;100.00
10806;BME280;5455;53.224;6.000;2024-02-21T00:47:41;101837.50;;;9.10;100.00
10806;BME280;5455;53.224;6.000;2024-02-21T00:50:08;101840.72;;;9.12;100.00
10806;BME280;5455;53.224;6.000;2024-02-21T00:52:36;101845.09;;;9.13;100.00
10806;BME280;5455;53.224;6.000;2024-02-21T00:55:04;101831.81;;;9.15;100.00
10806;BME280;5455;53.224;6.000;2024-02-21T00:57:31;101833.28;;;9.12;100.00
10806;BME280;5455;53.224;6.000;2024-02-21T00:59:58;101826.81;;;9.08;100.00
10806;BME280;5455;53.224;6.000;2024-02-21T01:02:26;101835.41;;;9.07;100.00
10806;BME280;5455;53.224;6.000;2024-02-21T01:04:53;101836.03;;;9.04;100.00
10806;BME280;5455;53.224;6.000;2024-02-21T01:07:20;101831.84;;;8.98;100.00
10806;BME280;5455;53.224;6.000;2024-02-21T01:09:47;101830.22;;;8.97;100.00
10806;BME280;5455;53.224;6.000;2024-02-21T01:12:14;101830.88;;;8.94;100.00
10806;BME280;5455;53.224;6.000;2024-02-21T01:14:41;101832.78;;;8.93;100.00
10806;BME280;5455;53.224;6.000;2024-02-21T01:17:08;101826.81;;;8.91;100.00
10806;BME280;5455;53.224;6.000;2024-02-21T01:19:35;101824.38;;;8.90;100.00
10806;BME280;5455;53.224;6.000;2024-02-21T01:22:02;101818.88;;;8.90;100.00
10806;BME280;5455;53.224;6.000;2024-02-21T01:24:29;101833.13;;;8.92;100.00
10806;BME280;5455;53.224;6.000;2024-02-21T01:26:56;101826.16;;;8.94;100.00
10806;BME280;5455;53.224;6.000;2024-02-21T01:29:22;101820.66;;;8.94;100.00
10806;BME280;5455;53.224;6.000;2024-02-21T01:31:49;101824.53;;;8.93;100.00
10806;BME280;5455;53.224;6.000;2024-02-21T01:34:16;101822.59;;;8.94;100.00
10806;BME280;5455;53.224;6.000;2024-02-21T01:36:44;101810.47;;;8.95;100.00
10806;BME280;5455;53.224;6.000;2024-02-21T01:39:10;101810.97;;;8.97;100.00
10806;BME280;5455;53.224;6.000;2024-02-21T01:41:37;101812.91;;;8.96;100.00
10806;BME280;5455;53.224;6.000;2024-02-21T01:44:04;101816.16;;;8.98;100.00
10806;BME280;5455;53.224;6.000;2024-02-21T01:46:31;101801.91;;;8.96;100.00
10806;BME280;5455;53.224;6.000;2024-02-21T01:48:59;101813.72;;;8.97;100.00
10806;BME280;5455;53.224;6.000;2024-02-21T01:51:27;101798.84;;;8.98;100.00
10806;BME280;5455;53.224;6.000;2024-02-21T01:53:55;101801.59;;;8.98;100.00
10806;BME280;5455;53.224;6.000;2024-02-21T01:56:23;101810.47;;;8.95;100.00
10806;BME280;5455;53.224;6.000;2024-02-21T01:58:51;101802.22;;;8.95;100.00
10806;BME280;5455;53.224;6.000;2024-02-21T02:01:18;101803.81;;;8.96;100.00
10806;BME280;5455;53.224;6.000;2024-02-21T02:03:48;101803.53;;;8.97;100.00
10806;BME280;5455;53.224;6.000;2024-02-21T02:06:16;101794.78;;;8.95;100.00
10806;BME280;5455;53.224;6.000;2024-02-21T02:08:43;101799.16;;;8.96;100.00
10806;BME280;5455;53.224;6.000;2024-02-21T02:11:13;101797.69;;;8.99;100.00
10806;BME280;5455;53.224;6.000;2024-02-21T02:13:40;101799.00;;;9.01;100.00
10806;BME280;5455;53.224;6.000;2024-02-21T02:16:07;101791.06;;;9.00;100.00
10806;BME280;5455;53.224;6.000;2024-02-21T02:18:34;101788.31;;;9.00;100.00
10806;BME280;5455;53.224;6.000;2024-02-21T02:21:05;101795.75;;;8.99;100.00
10806;BME280;5455;53.224;6.000;2024-02-21T02:23:35;101782.81;;;9.00;100.00
10806;BME280;5455;53.224;6.000;2024-02-21T02:26:02;101770.69;;;9.01;100.00
10806;BME280;5455;53.224;6.000;2024-02-21T02:28:30;101772.91;;;8.99;100.00
10806;BME280;5455;53.224;6.000;2024-02-21T02:30:57;101765.81;;;8.98;100.00
10806;BME280;5455;53.224;6.000;2024-02-21T02:33:24;101764.66;;;8.99;100.00
10806;BME280;5455;53.224;6.000;2024-02-21T02:35:51;101766.63;;;8.98;100.00
10806;BME280;5455;53.224;6.000;2024-02-21T02:38:18;101766.94;;;8.97;100.00
10806;BME280;5455;53.224;6.000;2024-02-21T02:40:45;101762.56;;;8.96;100.00
10806;BME280;5455;53.224;6.000;2024-02-21T02:43:12;101769.22;;;8.95;100.00
10806;BME280;5455;53.224;6.000;2024-02-21T02:45:39;101762.56;;;8.96;100.00
10806;BME280;5455;53.224;6.000;2024-02-21T02:48:07;101745.28;;;8.95;100.00
10806;BME280;5455;53.224;6.000;2024-02-21T02:50:34;101746.72;;;8.93;100.00
10806;BME280;5455;53.224;6.000;2024-02-21T02:53:01;101750.28;;;8.93;100.00
10806;BME280;5455;53.224;6.000;2024-02-21T02:55:28;101751.09;;;8.94;100.00
10806;BME280;5455;53.224;6.000;2024-02-21T02:57:55;101740.56;;;8.96;100.00
10806;BME280;5455;53.224;6.000;2024-02-21T03:00:23;101740.25;;;8.97;100.00
10806;BME280;5455;53.224;6.000;2024-02-21T03:02:51;101743.66;;;8.94;100.00
10806;BME280;5455;53.224;6.000;2024-02-21T03:05:19;101737.81;;;8.96;100.00
10806;BME280;5455;53.224;6.000;2024-02-21T03:07:48;101740.91;;;8.94;100.00
10806;BME280;5455;53.224;6.000;2024-02-21T03:10:16;101737.81;;;8.96;100.00
10806;BME280;5455;53.224;6.000;2024-02-21T03:12:44;101722.47;;;8.95;100.00
10806;BME280;5455;53.224;6.000;2024-02-21T03:15:13;101737.03;;;8.95;100.00
10806;BME280;5455;53.224;6.000;2024-02-21T03:17:40;101749.16;;;8.94;100.00
10806;BME280;5455;53.224;6.000;2024-02-21T03:20:08;101742.19;;;8.97;100.00
10806;BME280;5455;53.224;6.000;2024-02-21T03:22:38;101735.88;;;8.96;100.00
10806;BME280;5455;53.224;6.000;2024-02-21T03:25:07;101744.63;;;8.98;100.00
10806;BME280;5455;53.224;6.000;2024-02-21T03:27:34;101743.00;;;8.97;100.00
10806;BME280;5455;53.224;6.000;2024-02-21T03:30:01;101743.00;;;8.97;100.00
10806;BME280;5455;53.224;6.000;2024-02-21T03:32:28;101746.56;;;8.98;100.00
10806;BME280;5455;53.224;6.000;2024-02-21T03:34:56;101734.41;;;8.99;100.00
10806;BME280;5455;53.224;6.000;2024-02-21T03:37:23;101728.13;;;8.98;100.00
10806;BME280;5455;53.224;6.000;2024-02-21T03:39:51;101721.16;;;9.01;100.00
10806;BME280;5455;53.224;6.000;2024-02-21T03:42:18;101720.81;;;9.02;100.00
10806;BME280;5455;53.224;6.000;2024-02-21T03:44:45;101724.06;;;9.04;100.00
10806;BME280;5455;53.224;6.000;2024-02-21T03:47:12;101722.09;;;9.05;100.00
10806;BME280;5455;53.224;6.000;2024-02-21T03:49:39;101716.28;;;9.06;100.00
10806;BME280;5455;53.224;6.000;2024-02-21T03:52:06;101707.88;;;9.03;100.00
10806;BME280;5455;53.224;6.000;2024-02-21T03:54:35;101713.84;;;9.05;100.00
10806;BME280;5455;53.224;6.000;2024-02-21T03:57:01;101713.53;;;9.06;100.00
10806;BME280;5455;53.224;6.000;2024-02-21T03:59:29;101702.84;;;9.05;100.00
10806;BME280;5455;53.224;6.000;2024-02-21T04:01:56;101707.22;;;9.06;100.00
10806;BME280;5455;53.224;6.000;2024-02-21T04:04:23;101709.63;;;9.07;100.00
10806;BME280;5455;53.224;6.000;2024-02-21T04:06:50;101714.00;;;9.08;100.00
10806;BME280;5455;53.224;6.000;2024-02-21T04:09:18;101710.13;;;9.09;100.00
10806;BME280;5455;53.224;6.000;2024-02-21T04:11:45;101715.63;;;9.09;100.00
10806;BME280;5455;53.224;6.000;2024-02-21T04:14:12;101711.41;;;9.12;100.00
10806;BME280;5455;53.224;6.000;2024-02-21T04:16:39;101711.88;;;9.14;100.00
10806;BME280;5455;53.224;6.000;2024-02-21T04:19:07;101711.06;;;9.13;100.00
10806;BME280;5455;53.224;6.000;2024-02-21T04:21:34;101708.00;;;9.15;100.00
10806;BME280;5455;53.224;6.000;2024-02-21T04:24:02;101715.13;;;9.16;100.00
10806;BME280;5455;53.224;6.000;2024-02-21T04:26:33;101706.88;;;9.16;100.00
10806;BME280;5455;53.224;6.000;2024-02-21T04:29:00;101699.75;;;9.15;100.00
10806;BME280;5455;53.224;6.000;2024-02-21T04:31:27;101693.59;;;9.18;100.00
10806;BME280;5455;53.224;6.000;2024-02-21T04:33:55;101684.53;;;9.17;100.00
10806;BME280;5455;53.224;6.000;2024-02-21T04:36:22;101682.59;;;9.18;100.00
10806;BME280;5455;53.224;6.000;2024-02-21T04:38:49;101679.38;;;9.16;100.00
10806;BME280;5455;53.224;6.000;2024-02-21T04:41:17;101680.16;;;9.16;100.00
10806;BME280;5455;53.224;6.000;2024-02-21T04:43:46;101686.00;;;9.15;100.00
10806;BME280;5455;53.224;6.000;2024-02-21T04:46:13;101686.81;;;9.15;100.00
10806;BME280;5455;53.224;6.000;2024-02-21T04:48:40;101691.16;;;9.16;100.00
10806;BME280;5455;53.224;6.000;2024-02-21T04:51:07;101693.91;;;9.16;100.00
10806;BME280;5455;53.224;6.000;2024-02-21T04:53:34;101688.75;;;9.15;100.00
10806;BME280;5455;53.224;6.000;2024-02-21T04:56:01;101688.59;;;9.11;100.00
10806;BME280;5455;53.224;6.000;2024-02-21T04:58:28;101690.22;;;9.12;100.00
10806;BME280;5455;53.224;6.000;2024-02-21T05:00:55;101681.97;;;9.12;100.00
10806;BME280;5455;53.224;6.000;2024-02-21T05:03:23;101679.53;;;9.11;100.00
10806;BME280;5455;53.224;6.000;2024-02-21T05:05:50;101675.84;;;9.07;100.00
10806;BME280;5455;53.224;6.000;2024-02-21T05:08:17;101671.00;;;9.04;100.00
10806;BME280;5455;53.224;6.000;2024-02-21T05:10:44;101670.19;;;9.03;100.00
10806;BME280;5455;53.224;6.000;2024-02-21T05:13:12;101671.66;;;9.01;100.00
10806;BME280;5455;53.224;6.000;2024-02-21T05:15:39;101669.22;;;8.99;100.00
10806;BME280;5455;53.224;6.000;2024-02-21T05:18:06;101664.88;;;8.98;100.00
10806;BME280;5455;53.224;6.000;2024-02-21T05:20:33;101675.06;;;8.98;100.00
10806;BME280;5455;53.224;6.000;2024-02-21T05:23:01;101681.38;;;8.98;100.00
10806;BME280;5455;53.224;6.000;2024-02-21T05:25:28;101673.91;;;8.99;100.00
10806;BME280;5455;53.224;6.000;2024-02-21T05:27:55;101666.97;;;9.01;100.00
10806;BME280;5455;53.224;6.000;2024-02-21T05:30:22;101667.28;;;9.00;100.00
10806;BME280;5455;53.224;6.000;2024-02-21T05:32:49;101664.53;;;9.00;100.00
10806;BME280;5455;53.224;6.000;2024-02-21T05:35:16;101655.47;;;8.99;100.00
10806;BME280;5455;53.224;6.000;2024-02-21T05:37:43;101648.38;;;8.98;100.00
10806;BME280;5455;53.224;6.000;2024-02-21T05:40:13;101644.81;;;8.98;100.00
10806;BME280;5455;53.224;6.000;2024-02-21T05:42:40;101644.00;;;8.97;100.00
10806;BME280;5455;53.224;6.000;2024-02-21T05:45:07;101646.75;;;8.97;100.00
10806;BME280;5455;53.224;6.000;2024-02-21T05:47:35;101631.34;;;8.96;100.00
10806;BME280;5455;53.224;6.000;2024-02-21T05:50:03;101628.94;;;8.95;100.00
10806;BME280;5455;53.224;6.000;2024-02-21T05:52:30;101616.00;;;8.95;100.00
10806;BME280;5455;53.224;6.000;2024-02-21T05:54:57;101613.56;;;8.94;100.00
10806;BME280;5455;53.224;6.000;2024-02-21T05:57:24;101621.00;;;8.93;100.00
10806;BME280;5455;53.224;6.000;2024-02-21T05:59:51;101619.44;;;8.92;100.00
10806;BME280;5455;53.224;6.000;2024-02-21T06:02:18;101611.94;;;8.93;100.00
10806;BME280;5455;53.224;6.000;2024-02-21T06:04:45;101609.19;;;8.93;100.00
10806;BME280;5455;53.224;6.000;2024-02-21T06:07:13;101600.19;;;8.92;100.00
10806;BME280;5455;53.224;6.000;2024-02-21T06:09:40;101591.56;;;8.94;100.00
10806;BME280;5455;53.224;6.000;2024-02-21T06:12:08;101589.94;;;8.93;100.00
10806;BME280;5455;53.224;6.000;2024-02-21T06:14:35;101589.50;;;8.91;100.00
10806;BME280;5455;53.224;6.000;2024-02-21T06:17:02;101589.50;;;8.91;100.00
10806;BME280;5455;53.224;6.000;2024-02-21T06:19:29;101586.72;;;8.91;100.00
10806;BME280;5455;53.224;6.000;2024-02-21T06:21:56;101587.09;;;8.89;100.00
10806;BME280;5455;53.224;6.000;2024-02-21T06:24:23;101590.63;;;8.90;100.00
10806;BME280;5455;53.224;6.000;2024-02-21T06:26:50;101593.34;;;8.90;100.00
10806;BME280;5455;53.224;6.000;2024-02-21T06:29:17;101595.78;;;8.91;100.00
10806;BME280;5455;53.224;6.000;2024-02-21T06:31:44;101596.59;;;8.92;100.00
10806;BME280;5455;53.224;6.000;2024-02-21T06:34:11;101589.63;;;8.94;100.00
10806;BME280;5455;53.224;6.000;2024-02-21T06:36:38;101598.19;;;8.93;100.00
10806;BME280;5455;53.224;6.000;2024-02-21T06:39:05;101595.44;;;8.93;100.00
10806;BME280;5455;53.224;6.000;2024-02-21T06:41:34;101593.84;;;8.92;100.00
10806;BME280;5455;53.224;6.000;2024-02-21T06:44:02;101595.44;;;8.93;100.00
10806;BME280;5455;53.224;6.000;2024-02-21T06:46:30;101586.41;;;8.92;100.00
10806;BME280;5455;53.224;6.000;2024-02-21T06:48:58;101590.75;;;8.93;100.00
10806;BME280;5455;53.224;6.000;2024-02-21T06:51:25;101593.50;;;8.93;100.00
10806;BME280;5455;53.224;6.000;2024-02-21T06:53:53;101598.69;;;8.95;100.00
10806;BME280;5455;53.224;6.000;2024-02-21T06:56:22;101592.03;;;8.96;100.00
10806;BME280;5455;53.224;6.000;2024-02-21T06:58:54;101590.44;;;8.95;100.00
10806;BME280;5455;53.224;6.000;2024-02-21T07:01:21;101592.84;;;8.96;100.00
10806;BME280;5455;53.224;6.000;2024-02-21T07:03:48;101586.53;;;8.96;100.00
10806;BME280;5455;53.224;6.000;2024-02-21T07:06:15;101587.34;;;8.96;100.00
10806;BME280;5455;53.224;6.000;2024-02-21T07:08:42;101579.44;;;8.95;100.00
10806;BME280;5455;53.224;6.000;2024-02-21T07:11:10;101570.38;;;8.94;100.00
10806;BME280;5455;53.224;6.000;2024-02-21T07:13:38;101572.31;;;8.94;100.00
10806;BME280;5455;53.224;6.000;2024-02-21T07:16:06;101574.75;;;8.95;100.00
10806;BME280;5455;53.224;6.000;2024-02-21T07:18:33;101564.06;;;8.94;100.00
10806;BME280;5455;53.224;6.000;2024-02-21T07:21:00;101563.41;;;8.97;100.00
10806;BME280;5455;53.224;6.000;2024-02-21T07:23:28;101556.78;;;8.98;100.00
10806;BME280;5455;53.224;6.000;2024-02-21T07:25:54;101545.94;;;9.01;100.00
10806;BME280;5455;53.224;6.000;2024-02-21T07:28:21;101542.84;;;9.03;100.00
10806;BME280;5455;53.224;6.000;2024-02-21T07:30:49;101545.28;;;9.04;100.00
10806;BME280;5455;53.224;6.000;2024-02-21T07:33:16;101546.88;;;9.05;100.00
10806;BME280;5455;53.224;6.000;2024-02-21T07:35:43;101540.22;;;9.06;100.00
10806;BME280;5455;53.224;6.000;2024-02-21T07:38:11;101539.06;;;9.07;100.00
10806;BME280;5455;53.224;6.000;2024-02-21T07:40:39;101537.13;;;9.08;100.00
10806;BME280;5455;53.224;6.000;2024-02-21T07:43:07;101520.31;;;9.09;100.00
10806;BME280;5455;53.224;6.000;2024-02-21T07:45:34;101524.19;;;9.08;100.00
10806;BME280;5455;53.224;6.000;2024-02-21T07:48:02;101525.81;;;9.09;100.00
10806;BME280;5455;53.224;6.000;2024-02-21T07:50:29;101529.03;;;9.11;100.00
10806;BME280;5455;53.224;6.000;2024-02-21T07:52:56;101520.78;;;9.11;100.00
10806;BME280;5455;53.224;6.000;2024-02-21T07:55:23;101523.88;;;9.10;100.00
10806;BME280;5455;53.224;6.000;2024-02-21T07:57:50;101516.75;;;9.09;100.00
10806;BME280;5455;53.224;6.000;2024-02-21T08:00:18;101524.19;;;9.08;100.00
10806;BME280;5455;53.224;6.000;2024-02-21T08:02:48;101520.16;;;9.06;100.00
10806;BME280;5455;53.224;6.000;2024-02-21T08:05:16;101518.44;;;9.01;100.00
10806;BME280;5455;53.224;6.000;2024-02-21T08:07:43;101512.94;;;9.01;100.00
10806;BME280;5455;53.224;6.000;2024-02-21T08:10:10;101523.44;;;8.99;100.00
10806;BME280;5455;53.224;6.000;2024-02-21T08:12:37;101514.06;;;9.00;100.00
10806;BME280;5455;53.224;6.000;2024-02-21T08:15:05;101505.00;;;9.00;100.00
10806;BME280;5455;53.224;6.000;2024-02-21T08:17:33;101508.56;;;9.00;100.00
10806;BME280;5455;53.224;6.000;2024-02-21T08:20:00;101506.41;;;9.06;100.00
10806;BME280;5455;53.224;6.000;2024-02-21T08:22:27;101496.69;;;9.08;100.00
10806;BME280;5455;53.224;6.000;2024-02-21T08:24:55;101496.69;;;9.08;100.00
10806;BME280;5455;53.224;6.000;2024-02-21T08:27:22;101485.53;;;9.05;100.00
10806;BME280;5455;53.224;6.000;2024-02-21T08:29:48;101481.31;;;9.07;100.00
10806;BME280;5455;53.224;6.000;2024-02-21T08:32:16;101473.53;;;9.09;100.00
10806;BME280;5455;53.224;6.000;2024-02-21T08:34:42;101483.53;;;9.14;100.00
10806;BME280;5455;53.224;6.000;2024-02-21T08:37:10;101464.63;;;9.12;100.00
10806;BME280;5455;53.224;6.000;2024-02-21T08:39:39;101457.28;;;9.16;100.00
10806;BME280;5455;53.224;6.000;2024-02-21T08:42:06;101460.84;;;9.17;100.00
10806;BME280;5455;53.224;6.000;2024-02-21T08:44:35;101460.69;;;9.22;100.00
10806;BME280;5455;53.224;6.000;2024-02-21T08:47:02;101454.97;;;9.27;100.00
10806;BME280;5455;53.224;6.000;2024-02-21T08:49:31;101446.84;;;9.30;100.00
10806;BME280;5455;53.224;6.000;2024-02-21T08:52:04;101436.44;;;9.36;100.00
10806;BME280;5455;53.224;6.000;2024-02-21T08:54:32;101431.88;;;9.40;100.00
10806;BME280;5455;53.224;6.000;2024-02-21T08:57:02;101430.41;;;9.43;100.00
10806;BME280;5455;53.224;6.000;2024-02-21T08:59:30;101422.47;;;9.41;100.00
10806;BME280;5455;53.224;6.000;2024-02-21T09:01:57;101425.72;;;9.43;100.00
10806;BME280;5455;53.224;6.000;2024-02-21T09:04:24;101424.56;;;9.44;100.00
10806;BME280;5455;53.224;6.000;2024-02-21T09:06:51;101434.06;;;9.47;100.00
10806;BME280;5455;53.224;6.000;2024-02-21T09:09:19;101433.75;;;9.48;100.00
10806;BME280;5455;53.224;6.000;2024-02-21T09:11:46;101421.78;;;9.44;100.00
10806;BME280;5455;53.224;6.000;2024-02-21T09:14:13;101420.22;;;9.43;100.00
10806;BME280;5455;53.224;6.000;2024-02-21T09:16:40;101421.13;;;9.47;100.00
10806;BME280;5455;53.224;6.000;2024-02-21T09:19:07;101424.97;;;9.55;100.00
10806;BME280;5455;53.224;6.000;2024-02-21T09:21:37;101424.59;;;9.56;100.00
10806;BME280;5455;53.224;6.000;2024-02-21T09:24:05;101425.53;;;9.60;100.00
10806;BME280;5455;53.224;6.000;2024-02-21T09:26:32;101413.72;;;9.60;100.00
10806;BME280;5455;53.224;6.000;2024-02-21T09:29:00;101410.66;;;9.61;100.00
10806;BME280;5455;53.224;6.000;2024-02-21T09:31:27;101409.97;;;9.64;100.00
10806;BME280;5455;53.224;6.000;2024-02-21T09:33:54;101414.81;;;9.67;100.00
10806;BME280;5455;53.224;6.000;2024-02-21T09:36:21;101408.47;;;9.67;100.00
10806;BME280;5455;53.224;6.000;2024-02-21T09:38:48;101395.25;;;9.60;100.00
10806;BME280;5455;53.224;6.000;2024-02-21T09:41:17;101396.97;;;9.65;100.00
10806;BME280;5455;53.224;6.000;2024-02-21T09:43:52;101397.56;;;9.70;100.00
10806;BME280;5455;53.224;6.000;2024-02-21T09:51:40;101383.88;;;9.94;100.00
10806;BME280;5455;53.224;6.000;2024-02-21T09:54:08;101371.72;;;9.95;100.00
10806;BME280;5455;53.224;6.000;2024-02-21T09:56:45;101353.69;;;9.98;100.00
10806;BME280;5455;53.224;6.000;2024-02-21T09:59:16;101362.53;;;10.04;100.00
10806;BME280;5455;53.224;6.000;2024-02-21T10:01:44;101363.13;;;10.09;100.00
10806;BME280;5455;53.224;6.000;2024-02-21T10:04:11;101351.91;;;10.14;100.00
10806;BME280;5455;53.224;6.000;2024-02-21T10:06:39;101352.72;;;10.15;100.00
10806;BME280;5455;53.224;6.000;2024-02-21T10:09:06;101360.75;;;10.20;100.00
10806;BME280;5455;53.224;6.000;2024-02-21T10:11:35;101356.16;;;10.24;100.00
10806;BME280;5455;53.224;6.000;2024-02-21T10:14:07;101340.78;;;10.23;100.00
10806;BME280;5455;53.224;6.000;2024-02-21T10:16:35;101331.81;;;10.14;100.00
10806;BME280;5455;53.224;6.000;2024-02-21T10:19:04;101320.50;;;10.07;100.00
10806;BME280;5455;53.224;6.000;2024-02-21T10:21:31;101325.16;;;10.15;100.00
10806;BME280;5455;53.224;6.000;2024-02-21T10:23:58;101314.59;;;10.29;100.00
10806;BME280;5455;53.224;6.000;2024-02-21T10:26:25;101311.81;;;10.41;100.00
10806;BME280;5455;53.224;6.000;2024-02-21T10:28:52;101311.56;;;10.46;100.00
10806;BME280;5455;53.224;6.000;2024-02-21T10:31:25;101315.25;;;10.50;100.00
10806;BME280;5455;53.224;6.000;2024-02-21T10:34:00;101312.75;;;10.45;100.00
10806;BME280;5455;53.224;6.000;2024-02-21T10:36:30;101305.03;;;10.50;100.00
10806;BME280;5455;53.224;6.000;2024-02-21T10:38:57;101308.91;;;10.62;100.00
10806;BME280;5455;53.224;6.000;2024-02-21T10:41:24;101311.38;;;10.79;100.00
10806;BME280;5455;53.224;6.000;2024-02-21T10:43:53;101303.69;;;10.84;100.00
10806;BME280;5455;53.224;6.000;2024-02-21T10:46:23;101301.63;;;10.81;100.00
10806;BME280;5455;53.224;6.000;2024-02-21T10:49:13;101300.13;;;10.84;100.00
10806;BME280;5455;53.224;6.000;2024-02-21T10:51:45;101286.38;;;10.72;100.00
10806;BME280;5455;53.224;6.000;2024-02-21T10:56:45;101275.00;;;10.61;100.00
10806;BME280;5455;53.224;6.000;2024-02-21T10:59:14;101270.66;;;10.60;100.00
10806;BME280;5455;53.224;6.000;2024-02-21T11:01:41;101264.94;;;10.53;100.00
10806;BME280;5455;53.224;6.000;2024-02-21T11:04:09;101269.84;;;10.60;100.00
10806;BME280;5455;53.224;6.000;2024-02-21T11:06:40;101260.66;;;10.56;100.00
10806;BME280;5455;53.224;6.000;2024-02-21T11:09:10;101256.91;;;10.48;100.00
10806;BME280;5455;53.224;6.000;2024-02-21T11:11:40;101250.22;;;10.49;100.00
10806;BME280;5455;53.224;6.000;2024-02-21T11:16:37;101242.34;;;10.35;100.00
10806;BME280;5455;53.224;6.000;2024-02-21T11:19:19;101238.09;;;10.38;100.00
10806;BME280;5455;53.224;6.000;2024-02-21T11:21:47;101230.97;;;10.37;100.00
10806;BME280;5455;53.224;6.000;2024-02-21T11:27:11;101209.34;;;10.51;100.00
10806;BME280;5455;53.224;6.000;2024-02-21T11:29:49;101201.78;;;10.48;100.00
10806;BME280;5455;53.224;6.000;2024-02-21T11:32:20;101193.13;;;10.49;100.00
10806;BME280;5455;53.224;6.000;2024-02-21T11:35:00;101184.75;;;10.46;100.00
10806;BME280;5455;53.224;6.000;2024-02-21T11:37:35;101183.72;;;10.50;100.00
10806;BME280;5455;53.224;6.000;2024-02-21T11:40:06;101190.69;;;10.60;100.00
10806;BME280;5455;53.224;6.000;2024-02-21T11:42:38;101181.25;;;10.61;100.00
10806;BME280;5455;53.224;6.000;2024-02-21T11:45:06;101173.28;;;10.44;100.00
10806;BME280;5455;53.224;6.000;2024-02-21T11:47:36;101169.75;;;10.31;100.00
10806;BME280;5455;53.224;6.000;2024-02-21T11:50:10;101159.81;;;10.27;100.00
10806;BME280;5455;53.224;6.000;2024-02-21T11:52:39;101149.13;;;10.25;100.00
10806;BME280;5455;53.224;6.000;2024-02-21T11:55:07;101148.44;;;10.16;100.00
10806;BME280;5455;53.224;6.000;2024-02-21T11:57:37;101120.91;;;10.16;100.00
10806;BME280;5455;53.224;6.000;2024-02-21T12:00:18;101113.44;;;10.17;100.00
10806;BME280;5455;53.224;6.000;2024-02-21T12:02:49;101116.41;;;10.12;100.00
10806;BME280;5455;53.224;6.000;2024-02-21T12:05:19;101112.50;;;10.13;100.00
10806;BME280;5455;53.224;6.000;2024-02-21T12:07:46;101109.88;;;10.16;100.00
10806;BME280;5455;53.224;6.000;2024-02-21T12:10:13;101108.03;;;10.20;100.00
10806;BME280;5455;53.224;6.000;2024-02-21T12:12:42;101093.66;;;10.27;100.00
10806;BME280;5455;53.224;6.000;2024-02-21T12:15:09;101081.69;;;10.35;100.00
10806;BME280;5455;53.224;6.000;2024-02-21T12:17:37;101059.34;;;10.40;100.00
10806;BME280;5455;53.224;6.000;2024-02-21T12:20:06;101053.59;;;10.45;100.00
10806;BME280;5455;53.224;6.000;2024-02-21T12:22:41;101087.78;;;10.56;100.00
10806;BME280;5455;53.224;6.000;2024-02-21T12:25:22;101082.97;;;10.53;100.00
10806;BME280;5455;53.224;6.000;2024-02-21T12:27:50;101082.41;;;10.47;100.00
10806;BME280;5455;53.224;6.000;2024-02-21T12:30:18;101083.72;;;10.38;100.00
10806;BME280;5455;53.224;6.000;2024-02-21T12:32:46;101076.88;;;10.32;100.00
10806;BME280;5455;53.224;6.000;2024-02-21T12:35:13;101069.84;;;10.34;100.00
10806;BME280;5455;53.224;6.000;2024-02-21T12:37:41;101050.91;;;10.33;100.00
10806;BME280;5455;53.224;6.000;2024-02-21T12:40:09;101046.28;;;10.37;100.00
10806;BME280;5455;53.224;6.000;2024-02-21T12:42:37;101031.09;;;10.43;100.00
10806;BME280;5455;53.224;6.000;2024-02-21T12:45:05;101016.25;;;10.47;100.00
10806;BME280;5455;53.224;6.000;2024-02-21T12:47:32;101003.34;;;10.51;100.00
10806;BME280;5455;53.224;6.000;2024-02-21T12:50:00;101005.66;;;10.49;100.00
10806;BME280;5455;53.224;6.000;2024-02-21T12:52:27;100992.69;;;10.50;100.00
10806;BME280;5455;53.224;6.000;2024-02-21T12:54:54;100983.97;;;10.48;100.00
10806;BME280;5455;53.224;6.000;2024-02-21T12:57:23;100979.81;;;10.54;100.00
10806;BME280;5455;53.224;6.000;2024-02-21T12:59:54;100966.28;;;10.49;100.00
10806;BME280;5455;53.224;6.000;2024-02-21T13:02:21;100948.41;;;10.43;100.00
10806;BME280;5455;53.224;6.000;2024-02-21T13:04:49;100936.31;;;10.47;100.00
10806;BME280;5455;53.224;6.000;2024-02-21T13:07:17;100920.31;;;10.53;100.00
10806;BME280;5455;53.224;6.000;2024-02-21T13:09:44;100900.28;;;10.56;100.00
10806;BME280;5455;53.224;6.000;2024-02-21T13:12:11;100901.63;;;10.62;100.00
10806;BME280;5455;53.224;6.000;2024-02-21T13:14:39;100882.22;;;10.59;100.00